ASA447 KGEG-KSEA
Flight info
| Callsign | ASA447 |
|---|---|
| Flight time | 0h 40m |
| Altitude | 30000 |
| Route | TEMPL GLASR3 |
| Aircraft | E75L/M-L/S |
Departure
| Time | 2026-05-05 03:40 |
|---|---|
| Airport | Spokane International Airport (KGEG) |
Arrival
| Time | 2026-05-05 04:21 |
|---|---|
| Airport | Seattle–Tacoma International Airport (KSEA) |
| Time | Latitude | Longitude | Altitude | Speed | Heading |
|---|---|---|---|---|---|
| 2026-05-05 02:32 | 47.62339 | -117.53927 | 2372 ft | 0 kts | 359° |
| 2026-05-05 03:29 | 47.62335 | -117.53927 | 2372 ft | 3 kts | 0° |
| 2026-05-05 03:30 | 47.62308 | -117.53930 | 2372 ft | 4 kts | 9° |
| 2026-05-05 03:30 | 47.62282 | -117.53941 | 2372 ft | 4 kts | 28° |
| 2026-05-05 03:30 | 47.62268 | -117.53966 | 2372 ft | 3 kts | 88° |
| 2026-05-05 03:30 | 47.62268 | -117.53976 | 2372 ft | 0 kts | 90° |
| 2026-05-05 03:34 | 47.62268 | -117.53975 | 2372 ft | 1 kts | 90° |
| 2026-05-05 03:34 | 47.62267 | -117.53914 | 2372 ft | 11 kts | 91° |
| 2026-05-05 03:34 | 47.62255 | -117.53802 | 2372 ft | 10 kts | 137° |
| 2026-05-05 03:35 | 47.62211 | -117.53736 | 2372 ft | 10 kts | 133° |
| 2026-05-05 03:35 | 47.62143 | -117.53715 | 2372 ft | 11 kts | 207° |
| 2026-05-05 03:35 | 47.62086 | -117.53795 | 2372 ft | 12 kts | 225° |
| 2026-05-05 03:35 | 47.62024 | -117.53889 | 2373 ft | 13 kts | 226° |
| 2026-05-05 03:36 | 47.61957 | -117.53989 | 2373 ft | 15 kts | 225° |
| 2026-05-05 03:36 | 47.61901 | -117.54072 | 2373 ft | 18 kts | 225° |
| 2026-05-05 03:36 | 47.61812 | -117.54207 | 2373 ft | 19 kts | 225° |
| 2026-05-05 03:36 | 47.61716 | -117.54351 | 2374 ft | 20 kts | 225° |
| 2026-05-05 03:37 | 47.61615 | -117.54504 | 2372 ft | 22 kts | 226° |
| 2026-05-05 03:37 | 47.61505 | -117.54667 | 2372 ft | 23 kts | 227° |
| 2026-05-05 03:37 | 47.61406 | -117.54821 | 2373 ft | 21 kts | 227° |
| 2026-05-05 03:37 | 47.61303 | -117.54974 | 2373 ft | 21 kts | 225° |
| 2026-05-05 03:38 | 47.61199 | -117.55133 | 2373 ft | 21 kts | 225° |
| 2026-05-05 03:38 | 47.61161 | -117.55170 | 2373 ft | 0 kts | 196° |
| 2026-05-05 03:38 | 47.61160 | -117.55170 | 2373 ft | 1 kts | 196° |
| 2026-05-05 03:39 | 47.61130 | -117.55161 | 2373 ft | 10 kts | 150° |
| 2026-05-05 03:39 | 47.61048 | -117.55044 | 2374 ft | 20 kts | 135° |
| 2026-05-05 03:39 | 47.61041 | -117.54961 | 2374 ft | 6 kts | 44° |
| 2026-05-05 03:39 | 47.61138 | -117.54814 | 2374 ft | 55 kts | 45° |
| 2026-05-05 03:40 | 47.61610 | -117.54109 | 2374 ft | 136 kts | 45° |
| 2026-05-05 03:40 | 47.62408 | -117.52894 | 2676 ft | 183 kts | 46° |
| 2026-05-05 03:40 | 47.63318 | -117.51503 | 3718 ft | 192 kts | 45° |
| 2026-05-05 03:40 | 47.64294 | -117.50066 | 4393 ft | 207 kts | 44° |
| 2026-05-05 03:41 | 47.65383 | -117.48522 | 5015 ft | 217 kts | 44° |
| 2026-05-05 03:41 | 47.66483 | -117.46956 | 5681 ft | 231 kts | 43° |
| 2026-05-05 03:41 | 47.67676 | -117.45198 | 6308 ft | 250 kts | 45° |
| 2026-05-05 03:41 | 47.68862 | -117.43288 | 7233 ft | 253 kts | 47° |
| 2026-05-05 03:42 | 47.70079 | -117.41341 | 7966 ft | 267 kts | 46° |
| 2026-05-05 03:42 | 47.71387 | -117.39258 | 8559 ft | 283 kts | 46° |
| 2026-05-05 03:42 | 47.72775 | -117.37046 | 8961 ft | 308 kts | 46° |
| 2026-05-05 03:42 | 47.74347 | -117.34647 | 9142 ft | 336 kts | 38° |
| 2026-05-05 03:43 | 47.76384 | -117.33187 | 10255 ft | 320 kts | 12° |
| 2026-05-05 03:43 | 47.78573 | -117.33170 | 11076 ft | 317 kts | 346° |
| 2026-05-05 03:43 | 47.80543 | -117.34597 | 11711 ft | 319 kts | 320° |
| 2026-05-05 03:43 | 47.81889 | -117.37202 | 12360 ft | 321 kts | 294° |
| 2026-05-05 03:44 | 47.82321 | -117.40455 | 13003 ft | 324 kts | 267° |
| 2026-05-05 03:44 | 47.81790 | -117.43661 | 13649 ft | 326 kts | 249° |
| 2026-05-05 03:44 | 47.81187 | -117.46933 | 14274 ft | 330 kts | 261° |
| 2026-05-05 03:44 | 47.81013 | -117.50357 | 14930 ft | 334 kts | 266° |
| 2026-05-05 03:45 | 47.80917 | -117.53837 | 15625 ft | 338 kts | 268° |
| 2026-05-05 03:45 | 47.80810 | -117.57341 | 16307 ft | 341 kts | 267° |
| 2026-05-05 03:45 | 47.80693 | -117.60877 | 16958 ft | 344 kts | 267° |
| 2026-05-05 03:45 | 47.80574 | -117.64443 | 17591 ft | 348 kts | 267° |
| 2026-05-05 03:46 | 47.80451 | -117.68068 | 18220 ft | 352 kts | 267° |
| 2026-05-05 03:46 | 47.80328 | -117.71719 | 18870 ft | 355 kts | 267° |
| 2026-05-05 03:46 | 47.80201 | -117.75413 | 19552 ft | 358 kts | 267° |
| 2026-05-05 03:46 | 47.80074 | -117.79133 | 20257 ft | 362 kts | 267° |
| 2026-05-05 03:47 | 47.79943 | -117.82895 | 20908 ft | 366 kts | 267° |
| 2026-05-05 03:47 | 47.79812 | -117.86652 | 21514 ft | 370 kts | 267° |
| 2026-05-05 03:47 | 47.79676 | -117.90491 | 22134 ft | 373 kts | 267° |
| 2026-05-05 03:47 | 47.79539 | -117.94361 | 22690 ft | 377 kts | 267° |
| 2026-05-05 03:48 | 47.79397 | -117.98286 | 23234 ft | 381 kts | 267° |
| 2026-05-05 03:48 | 47.79254 | -118.02240 | 23774 ft | 384 kts | 267° |
| 2026-05-05 03:48 | 47.79108 | -118.06229 | 24362 ft | 386 kts | 267° |
| 2026-05-05 03:48 | 47.78959 | -118.10235 | 24891 ft | 390 kts | 267° |
| 2026-05-05 03:49 | 47.78810 | -118.14236 | 25393 ft | 394 kts | 266° |
| 2026-05-05 03:49 | 47.78656 | -118.18320 | 25891 ft | 397 kts | 266° |
| 2026-05-05 03:49 | 47.78500 | -118.22439 | 26394 ft | 400 kts | 266° |
| 2026-05-05 03:49 | 47.78340 | -118.26589 | 26870 ft | 403 kts | 266° |
| 2026-05-05 03:50 | 47.78179 | -118.30762 | 27355 ft | 406 kts | 266° |
| 2026-05-05 03:50 | 47.78013 | -118.34986 | 27763 ft | 410 kts | 266° |
| 2026-05-05 03:50 | 47.77846 | -118.39230 | 28186 ft | 413 kts | 266° |
| 2026-05-05 03:50 | 47.77676 | -118.43500 | 28607 ft | 415 kts | 266° |
| 2026-05-05 03:51 | 47.77502 | -118.47800 | 28977 ft | 418 kts | 266° |
| 2026-05-05 03:51 | 47.77326 | -118.52128 | 29349 ft | 421 kts | 266° |
| 2026-05-05 03:51 | 47.77148 | -118.56486 | 29703 ft | 423 kts | 266° |
| 2026-05-05 03:51 | 47.76968 | -118.60819 | 29886 ft | 411 kts | 266° |
| 2026-05-05 03:52 | 47.76609 | -118.69179 | 29989 ft | 413 kts | 266° |
| 2026-05-05 03:52 | 47.76426 | -118.73497 | 30015 ft | 424 kts | 266° |
| 2026-05-05 03:52 | 47.76240 | -118.77923 | 30022 ft | 435 kts | 266° |
| 2026-05-05 03:53 | 47.75852 | -118.86925 | 30012 ft | 438 kts | 266° |
| 2026-05-05 03:53 | 47.75454 | -118.95963 | 30003 ft | 438 kts | 266° |
| 2026-05-05 03:54 | 47.75047 | -119.05013 | 29999 ft | 439 kts | 266° |
| 2026-05-05 03:54 | 47.74631 | -119.14080 | 30002 ft | 439 kts | 266° |
| 2026-05-05 03:55 | 47.74210 | -119.23122 | 30002 ft | 438 kts | 266° |
| 2026-05-05 03:55 | 47.73781 | -119.32155 | 30001 ft | 439 kts | 266° |
| 2026-05-05 03:56 | 47.73347 | -119.41149 | 30002 ft | 438 kts | 266° |
| 2026-05-05 03:56 | 47.73156 | -119.50190 | 29999 ft | 438 kts | 275° |
| 2026-05-05 03:57 | 47.73842 | -119.59201 | 29998 ft | 438 kts | 277° |
| 2026-05-05 03:57 | 47.74557 | -119.68201 | 30012 ft | 439 kts | 276° |
| 2026-05-05 03:58 | 47.75265 | -119.77214 | 30002 ft | 439 kts | 276° |
| 2026-05-05 03:58 | 47.75963 | -119.86192 | 30000 ft | 440 kts | 276° |
| 2026-05-05 03:59 | 47.76655 | -119.95229 | 30000 ft | 440 kts | 276° |
| 2026-05-05 03:59 | 47.77339 | -120.04241 | 30001 ft | 435 kts | 276° |
| 2026-05-05 04:00 | 47.78013 | -120.13208 | 30001 ft | 436 kts | 276° |
| 2026-05-05 04:00 | 47.78677 | -120.22159 | 30000 ft | 439 kts | 276° |
| 2026-05-05 04:01 | 47.79341 | -120.31199 | 30002 ft | 439 kts | 276° |
| 2026-05-05 04:01 | 47.79997 | -120.40233 | 30001 ft | 438 kts | 276° |
| 2026-05-05 04:02 | 47.80323 | -120.44756 | 29782 ft | 443 kts | 276° |
| 2026-05-05 04:02 | 47.80656 | -120.49277 | 29340 ft | 433 kts | 276° |
| 2026-05-05 04:02 | 47.80967 | -120.53663 | 28894 ft | 421 kts | 276° |
| 2026-05-05 04:02 | 47.81265 | -120.57902 | 28459 ft | 414 kts | 276° |
| 2026-05-05 04:03 | 47.81565 | -120.62202 | 28051 ft | 422 kts | 276° |
| 2026-05-05 04:03 | 47.81870 | -120.66571 | 27641 ft | 425 kts | 276° |
| 2026-05-05 04:03 | 47.82173 | -120.70930 | 27226 ft | 421 kts | 276° |
| 2026-05-05 04:03 | 47.82471 | -120.75245 | 26800 ft | 417 kts | 276° |
| 2026-05-05 04:04 | 47.82765 | -120.79517 | 26376 ft | 414 kts | 276° |
| 2026-05-05 04:04 | 47.83057 | -120.83772 | 25953 ft | 412 kts | 276° |
| 2026-05-05 04:04 | 47.83344 | -120.87996 | 25528 ft | 409 kts | 276° |
| 2026-05-05 04:04 | 47.83628 | -120.92194 | 25102 ft | 407 kts | 276° |
| 2026-05-05 04:05 | 47.83911 | -120.96377 | 24679 ft | 406 kts | 276° |
| 2026-05-05 04:05 | 47.84187 | -121.00499 | 24261 ft | 405 kts | 276° |
| 2026-05-05 04:05 | 47.84464 | -121.04668 | 23838 ft | 405 kts | 276° |
| 2026-05-05 04:05 | 47.84740 | -121.08815 | 23416 ft | 400 kts | 275° |
| 2026-05-05 04:06 | 47.85010 | -121.12909 | 22990 ft | 396 kts | 275° |
| 2026-05-05 04:06 | 47.85276 | -121.16984 | 22567 ft | 394 kts | 275° |
| 2026-05-05 04:06 | 47.85541 | -121.21030 | 22144 ft | 392 kts | 275° |
| 2026-05-05 04:06 | 47.85802 | -121.25048 | 21724 ft | 389 kts | 275° |
| 2026-05-05 04:07 | 47.86059 | -121.29037 | 21300 ft | 385 kts | 275° |
| 2026-05-05 04:07 | 47.86312 | -121.32989 | 20874 ft | 381 kts | 275° |
| 2026-05-05 04:07 | 47.86564 | -121.36918 | 20453 ft | 381 kts | 275° |
| 2026-05-05 04:07 | 47.86812 | -121.40833 | 20001 ft | 380 kts | 275° |
| 2026-05-05 04:08 | 47.87059 | -121.44750 | 19351 ft | 378 kts | 275° |
| 2026-05-05 04:08 | 47.87303 | -121.48624 | 18703 ft | 373 kts | 275° |
| 2026-05-05 04:08 | 47.87541 | -121.52451 | 18049 ft | 368 kts | 275° |
| 2026-05-05 04:08 | 47.87776 | -121.56229 | 17394 ft | 365 kts | 275° |
| 2026-05-05 04:09 | 47.88008 | -121.59980 | 16744 ft | 361 kts | 275° |
| 2026-05-05 04:09 | 47.88232 | -121.63697 | 16103 ft | 358 kts | 275° |
| 2026-05-05 04:09 | 47.88096 | -121.67347 | 15438 ft | 353 kts | 255° |
| 2026-05-05 04:09 | 47.87336 | -121.70796 | 14800 ft | 349 kts | 251° |
| 2026-05-05 04:10 | 47.86562 | -121.74162 | 14164 ft | 346 kts | 251° |
| 2026-05-05 04:10 | 47.85786 | -121.77538 | 13522 ft | 343 kts | 251° |
| 2026-05-05 04:10 | 47.85009 | -121.80879 | 12868 ft | 340 kts | 249° |
| 2026-05-05 04:10 | 47.84051 | -121.84038 | 12205 ft | 324 kts | 243° |
| 2026-05-05 04:11 | 47.83059 | -121.86909 | 11521 ft | 302 kts | 242° |
| 2026-05-05 04:11 | 47.82117 | -121.89634 | 10837 ft | 291 kts | 245° |
| 2026-05-05 04:11 | 47.81305 | -121.92357 | 10171 ft | 287 kts | 247° |
| 2026-05-05 04:11 | 47.80524 | -121.95081 | 9514 ft | 285 kts | 247° |
| 2026-05-05 04:12 | 47.79756 | -121.97780 | 8866 ft | 282 kts | 247° |
| 2026-05-05 04:12 | 47.78998 | -122.00447 | 8213 ft | 279 kts | 247° |
| 2026-05-05 04:12 | 47.78227 | -122.03156 | 7586 ft | 287 kts | 247° |
| 2026-05-05 04:12 | 47.77441 | -122.05910 | 6957 ft | 292 kts | 247° |
| 2026-05-05 04:13 | 47.76643 | -122.08705 | 6327 ft | 295 kts | 247° |
| 2026-05-05 04:13 | 47.75773 | -122.11484 | 5687 ft | 296 kts | 243° |
| 2026-05-05 04:13 | 47.74851 | -122.14043 | 5200 ft | 271 kts | 241° |
| 2026-05-05 04:13 | 47.73987 | -122.16342 | 5053 ft | 240 kts | 241° |
| 2026-05-05 04:14 | 47.73212 | -122.18374 | 4979 ft | 215 kts | 240° |
| 2026-05-05 04:14 | 47.72509 | -122.20204 | 5000 ft | 194 kts | 240° |
| 2026-05-05 04:14 | 47.71849 | -122.21919 | 5005 ft | 190 kts | 240° |
| 2026-05-05 04:14 | 47.71189 | -122.23631 | 5001 ft | 192 kts | 240° |
| 2026-05-05 04:15 | 47.70524 | -122.25355 | 4995 ft | 192 kts | 240° |
| 2026-05-05 04:15 | 47.69861 | -122.27076 | 4950 ft | 193 kts | 240° |
| 2026-05-05 04:15 | 47.69193 | -122.28808 | 4735 ft | 192 kts | 240° |
| 2026-05-05 04:15 | 47.68476 | -122.30471 | 4507 ft | 191 kts | 229° |
| 2026-05-05 04:16 | 47.67362 | -122.31481 | 4283 ft | 191 kts | 194° |
| 2026-05-05 04:16 | 47.66040 | -122.31604 | 4099 ft | 191 kts | 179° |
| 2026-05-05 04:16 | 47.64710 | -122.31599 | 3893 ft | 191 kts | 182° |
| 2026-05-05 04:16 | 47.63385 | -122.31657 | 3669 ft | 190 kts | 181° |
| 2026-05-05 04:17 | 47.62062 | -122.31662 | 3442 ft | 189 kts | 180° |
| 2026-05-05 04:17 | 47.60768 | -122.31668 | 3197 ft | 181 kts | 181° |
| 2026-05-05 04:17 | 47.59522 | -122.31683 | 2963 ft | 179 kts | 181° |
| 2026-05-05 04:17 | 47.58279 | -122.31692 | 2747 ft | 178 kts | 181° |
| 2026-05-05 04:18 | 47.57062 | -122.31701 | 2522 ft | 177 kts | 181° |
| 2026-05-05 04:18 | 47.55838 | -122.31711 | 2296 ft | 174 kts | 181° |
| 2026-05-05 04:18 | 47.54627 | -122.31722 | 2062 ft | 174 kts | 181° |
| 2026-05-05 04:18 | 47.53414 | -122.31731 | 1836 ft | 172 kts | 181° |
| 2026-05-05 04:19 | 47.52266 | -122.31741 | 1606 ft | 158 kts | 181° |
| 2026-05-05 04:19 | 47.51196 | -122.31750 | 1386 ft | 149 kts | 181° |
| 2026-05-05 04:19 | 47.50176 | -122.31758 | 1193 ft | 145 kts | 181° |
| 2026-05-05 04:19 | 47.49160 | -122.31763 | 996 ft | 146 kts | 180° |
| 2026-05-05 04:20 | 47.48145 | -122.31758 | 815 ft | 146 kts | 181° |
| 2026-05-05 04:20 | 47.47128 | -122.31775 | 616 ft | 147 kts | 181° |
| 2026-05-05 04:20 | 47.46115 | -122.31785 | 413 ft | 142 kts | 181° |
| 2026-05-05 04:20 | 47.45222 | -122.31799 | 393 ft | 111 kts | 180° |
| 2026-05-05 04:21 | 47.44713 | -122.31786 | 383 ft | 48 kts | 170° |
| 2026-05-05 04:21 | 47.44417 | -122.31600 | 372 ft | 45 kts | 150° |
| 2026-05-05 04:21 | 47.44262 | -122.31424 | 376 ft | 19 kts | 107° |
| 2026-05-05 04:21 | 47.44308 | -122.31365 | 379 ft | 8 kts | 4° |
| 2026-05-05 04:22 | 47.44375 | -122.31362 | 381 ft | 12 kts | 2° |
| 2026-05-05 04:22 | 47.44470 | -122.31360 | 383 ft | 16 kts | 0° |
| 2026-05-05 04:22 | 47.44596 | -122.31359 | 386 ft | 20 kts | 1° |
| 2026-05-05 04:22 | 47.44645 | -122.31286 | 390 ft | 7 kts | 88° |
| 2026-05-05 04:23 | 47.44647 | -122.31212 | 392 ft | 7 kts | 88° |
| 2026-05-05 04:23 | 47.44636 | -122.31140 | 393 ft | 9 kts | 114° |
| 2026-05-05 04:23 | 47.44581 | -122.31047 | 391 ft | 15 kts | 142° |
| 2026-05-05 04:23 | 47.44490 | -122.30970 | 389 ft | 12 kts | 150° |
| 2026-05-05 04:24 | 47.44441 | -122.30929 | 389 ft | 0 kts | 152° |
| 2026-05-05 04:25 | 47.44372 | -122.30859 | 390 ft | 16 kts | 131° |
| 2026-05-05 04:25 | 47.44349 | -122.30691 | 391 ft | 17 kts | 86° |
| 2026-05-05 04:25 | 47.44363 | -122.30548 | 392 ft | 10 kts | 30° |
| 2026-05-05 04:25 | 47.44425 | -122.30543 | 392 ft | 9 kts | 359° |
| 2026-05-05 04:26 | 47.44465 | -122.30543 | 393 ft | 5 kts | 0° |
| 2026-05-05 04:26 | 47.44505 | -122.30543 | 395 ft | 7 kts | 360° |
| 2026-05-05 04:26 | 47.44574 | -122.30543 | 398 ft | 13 kts | 4° |
| 2026-05-05 04:26 | 47.44683 | -122.30541 | 401 ft | 19 kts | 0° |
| 2026-05-05 04:27 | 47.44820 | -122.30542 | 405 ft | 19 kts | 357° |
| 2026-05-05 04:27 | 47.44956 | -122.30539 | 407 ft | 20 kts | 360° |
| 2026-05-05 04:27 | 47.45084 | -122.30508 | 413 ft | 18 kts | 1° |
| 2026-05-05 04:27 | 47.45211 | -122.30506 | 410 ft | 18 kts | 2° |
| 2026-05-05 04:28 | 47.45337 | -122.30502 | 411 ft | 17 kts | 0° |
| 2026-05-05 04:28 | 47.45395 | -122.30449 | 422 ft | 9 kts | 84° |
| 2026-05-05 04:28 | 47.45404 | -122.30343 | 422 ft | 11 kts | 80° |
| 2026-05-05 04:28 | 47.45406 | -122.30243 | 425 ft | 7 kts | 130° |
| 2026-05-05 04:29 | 47.45377 | -122.30204 | 424 ft | 0 kts | 139° |
| 2026-05-05 04:29 | 47.45376 | -122.30203 | 424 ft | 0 kts | 139° |